Buskirk, New York
Current Conditions -  °F | °C
As of 12:21 PM on Wednesday 26 Nov 2014 (Local Time) from KDDH Reporting Station
Moderate Snow Moderate Snow  
Wind Chill: 29°   Ceiling: 500
Heat Index: 33°   Visibility: 0.25mi
Dew Point: 31°   Wind: 5mph
Humidity: 92%   Direction: 340°NNW
Pressure: 30.09"   Gusts: NA
Location:  42.95°N, 73.43°W
Report Text: KDDH 261721Z AUTO 34004KT 1/4SM SN FG VV005 01/M01 A3009 RMK AO2 P0004 T00061006
Loading
Personal Weather Stations






























Interactive Weather Map New forecast layout! Learn more

10-Day Weather Forecast

Advertisements
Track Severe Weather on mobile